createdAt,value
2022-12-29T00:00:18.805Z,64.77
2022-12-29T00:02:46.050Z,64.51
2022-12-29T00:05:13.300Z,64.64
2022-12-29T00:07:40.371Z,64.45
2022-12-29T00:10:07.846Z,63.61
2022-12-29T00:13:10.236Z,63.18
2022-12-29T00:15:40.463Z,63.64
2022-12-29T00:18:08.753Z,62.69
2022-12-29T00:20:57.564Z,62.32
2022-12-29T00:23:43.666Z,62.36
2022-12-29T00:26:34.771Z,62.72
2022-12-29T00:29:20.452Z,61.99
2022-12-29T00:32:07.296Z,62.72
2022-12-29T00:34:52.981Z,62.55
2022-12-29T00:37:40.072Z,62.37
2022-12-29T00:40:26.093Z,61.93
2022-12-29T00:43:11.923Z,61.69
2022-12-29T00:45:42.841Z,61.96
2022-12-29T00:48:09.935Z,62.01
2022-12-29T00:50:37.209Z,62.32
2022-12-29T00:53:04.289Z,62.48
2022-12-29T00:55:31.381Z,62.23
2022-12-29T00:57:59.423Z,61.60
2022-12-29T01:00:26.652Z,62.01
2022-12-29T01:02:53.847Z,61.54
2022-12-29T01:05:21.070Z,61.83
2022-12-29T01:07:48.153Z,61.76
2022-12-29T01:10:16.278Z,61.49
2022-12-29T01:12:43.355Z,61.77
2022-12-29T01:15:12.914Z,61.43
2022-12-29T01:17:39.957Z,61.22
2022-12-29T01:20:07.629Z,62.34
2022-12-29T01:22:36.086Z,62.08
2022-12-29T01:25:03.630Z,61.01
2022-12-29T01:27:30.680Z,61.04
2022-12-29T01:29:58.402Z,61.85
2022-12-29T01:32:25.597Z,60.56
2022-12-29T01:34:52.676Z,61.20
2022-12-29T01:37:19.728Z,60.84
2022-12-29T01:39:46.865Z,61.90
2022-12-29T01:42:27.300Z,61.92
2022-12-29T01:44:56.688Z,61.49
2022-12-29T01:47:39.152Z,61.29
2022-12-29T01:50:26.186Z,61.39
2022-12-29T01:53:33.248Z,61.78
2022-12-29T01:56:06.395Z,61.56
2022-12-29T01:58:41.171Z,61.56
2022-12-29T02:01:08.870Z,60.79
2022-12-29T02:03:37.589Z,60.58
2022-12-29T02:06:20.067Z,61.21
2022-12-29T02:08:48.640Z,61.48
2022-12-29T02:11:17.426Z,61.04
2022-12-29T02:13:44.457Z,60.87
2022-12-29T02:16:30.033Z,61.55
2022-12-29T02:19:12.403Z,61.84
2022-12-29T02:21:57.632Z,61.53
2022-12-29T02:25:10.300Z,61.55
2022-12-29T02:28:14.586Z,61.35
2022-12-29T02:30:47.973Z,61.79
2022-12-29T02:33:41.228Z,61.73
2022-12-29T02:36:30.187Z,61.63
2022-12-29T02:39:38.741Z,62.06
2022-12-29T02:42:17.671Z,62.03
2022-12-29T02:45:04.056Z,61.68
2022-12-29T02:47:42.664Z,62.54
2022-12-29T02:50:14.985Z,63.12
2022-12-29T02:52:53.148Z,62.87
2022-12-29T02:55:20.371Z,63.31
2022-12-29T02:57:47.495Z,63.42
2022-12-29T03:00:18.138Z,62.12
2022-12-29T03:03:33.017Z,62.83
2022-12-29T03:06:28.357Z,62.63
2022-12-29T03:09:20.683Z,62.31
2022-12-29T03:12:10.692Z,62.66
2022-12-29T03:15:10.031Z,62.07
2022-12-29T03:18:04.404Z,62.33
2022-12-29T03:20:56.132Z,62.69
2022-12-29T03:23:26.410Z,62.55
2022-12-29T03:25:59.355Z,62.97
2022-12-29T03:28:36.881Z,62.48
2022-12-29T03:31:06.060Z,62.09
2022-12-29T03:33:34.168Z,62.41
2022-12-29T03:36:06.258Z,61.96
2022-12-29T03:38:47.315Z,62.70
2022-12-29T03:41:21.450Z,62.70
2022-12-29T03:43:48.698Z,61.83
2022-12-29T03:46:15.804Z,62.40
2022-12-29T03:48:42.978Z,62.73
2022-12-29T03:51:10.456Z,62.91
2022-12-29T03:53:37.573Z,62.47
2022-12-29T03:56:05.127Z,62.53
2022-12-29T03:58:32.835Z,62.55
2022-12-29T04:01:06.139Z,62.19
2022-12-29T04:03:36.590Z,62.01
2022-12-29T04:06:05.149Z,61.64
2022-12-29T04:08:50.853Z,62.18
2022-12-29T04:11:17.999Z,62.47
2022-12-29T04:13:46.405Z,61.70
2022-12-29T04:16:17.401Z,61.70
2022-12-29T04:18:45.808Z,62.04
2022-12-29T04:21:13.357Z,61.93
2022-12-29T04:23:43.028Z,61.70
2022-12-29T04:26:11.623Z,61.67
2022-12-29T04:29:03.895Z,62.11
2022-12-29T04:32:00.133Z,62.21
2022-12-29T04:34:29.364Z,62.31
2022-12-29T04:36:56.364Z,61.65
2022-12-29T04:39:23.484Z,61.36
2022-12-29T04:41:50.524Z,61.89
2022-12-29T04:44:20.947Z,61.49
2022-12-29T04:46:53.708Z,60.78
2022-12-29T04:49:40.500Z,61.22
2022-12-29T04:52:17.358Z,60.92
2022-12-29T04:54:46.513Z,61.27
2022-12-29T04:57:18.438Z,61.30
2022-12-29T04:59:52.301Z,61.55
2022-12-29T05:02:19.646Z,61.55
2022-12-29T05:04:49.276Z,61.45
2022-12-29T05:07:17.143Z,61.69
2022-12-29T05:09:45.956Z,61.60
2022-12-29T05:12:13.048Z,61.97
2022-12-29T05:14:48.806Z,61.82
2022-12-29T05:17:16.059Z,62.20
2022-12-29T05:19:43.174Z,62.82
2022-12-29T05:22:10.247Z,61.82
2022-12-29T05:24:38.634Z,62.15
2022-12-29T05:27:06.248Z,61.76
2022-12-29T05:29:55.610Z,60.94
2022-12-29T05:32:22.714Z,61.89
2022-12-29T05:34:50.014Z,61.33
2022-12-29T05:37:18.724Z,61.63
2022-12-29T05:39:45.743Z,62.47
2022-12-29T05:42:13.880Z,61.37
2022-12-29T05:45:01.649Z,62.27
2022-12-29T05:47:43.197Z,61.92
2022-12-29T05:50:30.460Z,61.43
2022-12-29T05:53:24.180Z,61.26
2022-12-29T05:55:51.200Z,60.92
2022-12-29T05:58:18.654Z,61.14
2022-12-29T06:00:45.942Z,61.62
2022-12-29T06:03:13.904Z,60.69
2022-12-29T06:05:42.440Z,60.51
2022-12-29T06:08:09.485Z,60.96
2022-12-29T06:10:36.692Z,61.14
2022-12-29T06:13:06.951Z,61.01
2022-12-29T06:15:37.463Z,61.05
2022-12-29T06:18:07.795Z,60.33
2022-12-29T06:20:35.220Z,61.64
2022-12-29T06:23:05.022Z,60.85
2022-12-29T06:25:33.424Z,61.04
2022-12-29T06:28:01.282Z,60.66
2022-12-29T06:30:28.350Z,60.05
2022-12-29T06:32:55.802Z,60.87
2022-12-29T06:35:24.324Z,60.64
2022-12-29T06:37:52.667Z,61.67
2022-12-29T06:40:20.930Z,60.74
2022-12-29T06:43:08.635Z,60.35
2022-12-29T06:46:01.900Z,60.47
2022-12-29T06:48:29.026Z,61.67
2022-12-29T06:50:56.093Z,61.27
2022-12-29T06:53:23.195Z,60.58
2022-12-29T06:55:51.466Z,60.37
2022-12-29T06:58:20.900Z,59.78
2022-12-29T07:00:48.596Z,59.69
2022-12-29T07:03:15.796Z,59.78
2022-12-29T07:05:43.138Z,60.58
2022-12-29T07:08:10.239Z,60.46
2022-12-29T07:10:37.302Z,60.23
2022-12-29T07:13:04.333Z,59.64
2022-12-29T07:15:31.369Z,59.22
2022-12-29T07:17:58.418Z,59.15
2022-12-29T07:20:27.204Z,58.79
2022-12-29T07:22:54.748Z,59.06
2022-12-29T07:25:22.154Z,57.19
2022-12-29T07:27:49.800Z,56.25
2022-12-29T07:30:16.991Z,56.44
2022-12-29T07:35:36.052Z,55.25
2022-12-29T07:38:03.084Z,55.76
2022-12-29T07:40:30.010Z,55.04
2022-12-29T07:42:57.182Z,55.97
2022-12-29T07:45:33.375Z,56.47
2022-12-29T07:48:09.464Z,55.57
2022-12-29T07:50:37.751Z,55.41
2022-12-29T07:53:05.030Z,56.77
2022-12-29T07:55:32.269Z,55.40
2022-12-29T07:57:59.290Z,55.56
2022-12-29T08:00:26.513Z,55.65
2022-12-29T08:02:53.620Z,56.05
2022-12-29T08:05:20.661Z,57.22
2022-12-29T08:07:48.447Z,55.38
2022-12-29T08:10:16.785Z,55.79
2022-12-29T08:12:44.385Z,54.93
2022-12-29T08:15:13.236Z,55.51
2022-12-29T08:17:40.301Z,55.18
2022-12-29T08:20:08.468Z,55.16
2022-12-29T08:22:35.795Z,54.79
2022-12-29T08:25:03.322Z,55.88
2022-12-29T08:27:30.708Z,55.95
2022-12-29T08:29:57.747Z,56.28
2022-12-29T08:32:24.871Z,56.29
2022-12-29T08:34:51.964Z,56.05
2022-12-29T08:37:18.947Z,56.12
2022-12-29T08:39:45.939Z,57.34
2022-12-29T08:42:13.092Z,56.04
2022-12-29T08:44:40.200Z,56.19
2022-12-29T08:47:07.364Z,56.27
2022-12-29T08:49:34.534Z,55.94
2022-12-29T08:52:01.535Z,55.13
2022-12-29T08:54:28.613Z,54.81
2022-12-29T08:56:55.663Z,54.29
2022-12-29T08:59:27.829Z,54.23
2022-12-29T09:01:54.988Z,54.62
2022-12-29T09:04:22.294Z,55.33
2022-12-29T09:06:49.598Z,56.15
2022-12-29T09:09:17.125Z,56.43
2022-12-29T09:17:04.893Z,55.41
2022-12-29T09:19:31.984Z,55.51
2022-12-29T09:21:58.974Z,55.21
2022-12-29T09:24:26.056Z,54.69
2022-12-29T09:26:53.497Z,54.62
2022-12-29T09:29:20.715Z,54.57
2022-12-29T09:31:47.828Z,54.25
2022-12-29T09:34:14.904Z,54.86
2022-12-29T09:36:42.013Z,55.24
2022-12-29T09:39:09.533Z,55.65
2022-12-29T09:41:53.572Z,54.95
2022-12-29T09:44:57.924Z,55.43
2022-12-29T09:47:27.773Z,54.92
2022-12-29T09:50:04.984Z,54.41
2022-12-29T09:52:49.914Z,54.65
2022-12-29T09:55:22.144Z,55.00
2022-12-29T09:57:57.727Z,55.15
2022-12-29T10:00:55.852Z,55.43
2022-12-29T10:03:29.358Z,54.86
2022-12-29T10:06:20.482Z,54.97
2022-12-29T10:09:03.155Z,55.01
2022-12-29T10:21:18.712Z,56.38
2022-12-29T10:23:54.059Z,56.14
2022-12-29T10:26:43.707Z,56.68
2022-12-29T10:29:23.256Z,56.93
2022-12-29T10:32:00.709Z,56.59
2022-12-29T10:34:43.988Z,57.39
2022-12-29T10:37:49.025Z,56.79
2022-12-29T10:40:39.617Z,56.81
2022-12-29T10:43:33.745Z,56.36
2022-12-29T10:46:10.363Z,56.04
2022-12-29T10:48:38.386Z,57.33
2022-12-29T10:51:09.736Z,56.86
2022-12-29T10:53:46.398Z,56.72
2022-12-29T10:56:46.148Z,57.17
2022-12-29T10:59:23.303Z,57.13
2022-12-29T11:02:03.055Z,57.44
2022-12-29T11:04:59.588Z,57.37
2022-12-29T11:07:27.785Z,58.00
2022-12-29T11:09:55.565Z,58.29
2022-12-29T11:12:25.919Z,57.06
2022-12-29T11:15:22.358Z,58.07
2022-12-29T11:17:54.983Z,57.28
2022-12-29T11:20:38.740Z,56.97
2022-12-29T11:23:27.941Z,57.49
2022-12-29T11:26:08.729Z,57.48
2022-12-29T11:28:36.065Z,58.61
2022-12-29T11:31:05.010Z,57.63
2022-12-29T11:33:33.592Z,57.74
2022-12-29T11:36:06.947Z,58.67
2022-12-29T11:38:40.471Z,57.87
2022-12-29T11:41:11.794Z,58.02
2022-12-29T11:43:42.777Z,58.56
2022-12-29T11:46:17.657Z,57.43
2022-12-29T11:48:46.804Z,57.61
2022-12-29T11:51:25.190Z,57.48
2022-12-29T11:53:59.386Z,58.16
2022-12-29T11:56:41.136Z,58.68
2022-12-29T11:59:37.558Z,58.91
2022-12-29T12:02:38.841Z,59.16
2022-12-29T12:05:20.535Z,59.18
2022-12-29T12:07:56.005Z,59.17
2022-12-29T12:10:33.153Z,59.52
2022-12-29T12:13:07.001Z,59.03
2022-12-29T12:15:56.816Z,59.28
2022-12-29T12:18:37.819Z,59.99
2022-12-29T12:21:23.318Z,60.29
2022-12-29T12:24:16.343Z,60.20
2022-12-29T12:27:08.301Z,60.86
2022-12-29T12:30:07.053Z,60.72
2022-12-29T12:32:46.690Z,61.47
2022-12-29T12:35:21.588Z,61.37
2022-12-29T12:38:10.453Z,61.70
2022-12-29T12:40:46.372Z,61.18
2022-12-29T12:43:58.433Z,61.64
2022-12-29T12:46:54.434Z,61.57
2022-12-29T12:49:43.134Z,61.43
2022-12-29T12:52:47.487Z,61.96
2022-12-29T12:55:20.259Z,62.34
2022-12-29T12:58:08.483Z,62.33
2022-12-29T13:00:52.058Z,62.31
2022-12-29T13:03:47.234Z,62.73
2022-12-29T13:06:41.969Z,62.90
2022-12-29T13:09:46.168Z,63.64
2022-12-29T13:12:23.043Z,63.61
2022-12-29T13:15:05.532Z,62.97
2022-12-29T13:17:42.106Z,63.57
2022-12-29T13:20:23.077Z,64.02
2022-12-29T13:22:52.973Z,64.02
2022-12-29T13:25:20.007Z,64.47
2022-12-29T13:28:11.760Z,63.85
2022-12-29T13:31:05.254Z,64.01
2022-12-29T13:33:57.127Z,63.62
2022-12-29T13:36:30.512Z,63.94
2022-12-29T13:39:25.846Z,64.31
2022-12-29T13:41:56.006Z,64.12
2022-12-29T13:44:45.326Z,63.78
2022-12-29T13:47:38.223Z,64.43
2022-12-29T13:50:13.744Z,63.60
2022-12-29T13:53:14.081Z,63.77
2022-12-29T13:55:56.618Z,63.31
2022-12-29T13:58:36.172Z,63.41
2022-12-29T14:01:33.359Z,63.06
2022-12-29T14:04:04.017Z,63.49
2022-12-29T14:06:33.130Z,63.16
2022-12-29T14:09:03.895Z,63.15
2022-12-29T14:11:36.600Z,63.64
2022-12-29T14:14:22.411Z,63.93
2022-12-29T14:16:50.286Z,64.08
2022-12-29T14:19:22.237Z,64.21
2022-12-29T14:22:00.360Z,65.28
2022-12-29T14:24:36.453Z,65.59
2022-12-29T14:27:13.183Z,65.84
2022-12-29T14:29:40.251Z,65.62
2022-12-29T14:32:25.412Z,65.65
2022-12-29T14:35:00.613Z,65.23
2022-12-29T14:37:31.975Z,65.27
2022-12-29T14:40:18.747Z,65.14
2022-12-29T14:42:49.835Z,65.46
2022-12-29T14:45:17.667Z,65.42
2022-12-29T14:47:50.316Z,65.87
2022-12-29T14:50:25.781Z,66.08
2022-12-29T14:53:06.153Z,65.78
2022-12-29T14:55:44.113Z,65.50
2022-12-29T14:58:23.389Z,65.90
2022-12-29T15:00:50.960Z,64.87
2022-12-29T15:03:24.007Z,64.88
2022-12-29T15:05:57.116Z,64.44
2022-12-29T15:08:29.028Z,64.97
2022-12-29T15:11:02.131Z,64.85
2022-12-29T15:13:37.844Z,64.64
2022-12-29T15:16:05.958Z,64.94
2022-12-29T15:18:34.956Z,64.82
2022-12-29T15:21:04.644Z,65.29
2022-12-29T15:23:35.218Z,65.29
2022-12-29T15:26:11.614Z,65.78
2022-12-29T15:28:46.908Z,65.01
2022-12-29T15:31:23.543Z,65.56
2022-12-29T15:34:10.042Z,65.57
2022-12-29T15:36:42.487Z,65.52
2022-12-29T15:39:28.901Z,65.09
2022-12-29T15:42:17.911Z,64.62
2022-12-29T15:44:45.954Z,64.71
2022-12-29T15:47:22.300Z,65.13
2022-12-29T15:49:52.408Z,65.14
2022-12-29T15:52:21.718Z,65.23
2022-12-29T15:54:54.694Z,65.96
2022-12-29T15:57:37.700Z,65.85
2022-12-29T16:00:23.013Z,65.15
2022-12-29T16:02:50.521Z,65.91
2022-12-29T16:05:19.596Z,66.11
2022-12-29T16:07:58.461Z,65.71
2022-12-29T16:10:41.281Z,65.76
2022-12-29T16:13:41.105Z,65.18
2022-12-29T16:16:21.921Z,66.34
2022-12-29T16:18:56.947Z,66.39
2022-12-29T16:21:30.237Z,66.43
2022-12-29T16:24:03.158Z,66.92
2022-12-29T16:26:30.734Z,66.76
2022-12-29T16:29:00.745Z,66.57
2022-12-29T16:31:37.715Z,65.92
2022-12-29T16:34:24.387Z,66.34
2022-12-29T16:37:03.957Z,67.64
2022-12-29T16:39:37.627Z,67.30
2022-12-29T16:42:47.110Z,68.09
2022-12-29T16:45:22.377Z,68.52
2022-12-29T16:48:06.011Z,68.09
2022-12-29T16:50:37.937Z,67.77
2022-12-29T16:53:06.417Z,67.99
2022-12-29T16:55:34.076Z,68.22
2022-12-29T16:58:01.659Z,67.90
2022-12-29T17:00:34.599Z,67.87
2022-12-29T17:03:02.855Z,67.47
2022-12-29T17:05:29.998Z,67.38
2022-12-29T17:08:03.462Z,67.46
2022-12-29T17:10:50.488Z,67.29
2022-12-29T17:13:17.488Z,66.80
2022-12-29T17:15:44.544Z,67.10
2022-12-29T17:18:14.232Z,67.37
2022-12-29T17:20:42.354Z,67.56
2022-12-29T17:23:19.960Z,67.10
2022-12-29T17:25:51.808Z,67.51
2022-12-29T17:28:32.253Z,66.84
2022-12-29T17:31:06.996Z,66.61
2022-12-29T17:33:38.729Z,66.97
2022-12-29T17:36:06.132Z,66.37
2022-12-29T17:38:37.529Z,66.60
2022-12-29T17:41:04.966Z,66.49
2022-12-29T17:43:37.023Z,66.11
2022-12-29T17:46:07.255Z,66.71
2022-12-29T17:48:34.558Z,66.93
2022-12-29T17:51:01.609Z,67.40
2022-12-29T17:53:30.633Z,67.83
2022-12-29T17:55:58.028Z,67.90
2022-12-29T17:58:27.560Z,68.10
2022-12-29T18:00:59.801Z,68.72
2022-12-29T18:03:45.338Z,68.76
2022-12-29T18:06:12.865Z,68.68
2022-12-29T18:08:41.562Z,69.04
2022-12-29T18:11:24.783Z,69.65
2022-12-29T18:13:53.503Z,69.27
2022-12-29T18:16:22.750Z,69.59
2022-12-29T18:18:49.925Z,69.93
2022-12-29T18:21:21.213Z,69.74
2022-12-29T18:23:49.341Z,69.33
2022-12-29T18:26:25.705Z,69.18
2022-12-29T18:28:56.627Z,68.96
2022-12-29T18:31:27.066Z,69.21
2022-12-29T18:33:55.182Z,68.96
2022-12-29T18:36:23.101Z,68.98
2022-12-29T18:38:54.912Z,68.83
2022-12-29T18:41:24.984Z,68.76
2022-12-29T18:43:52.602Z,68.67
2022-12-29T18:46:22.975Z,69.31
2022-12-29T18:48:51.851Z,69.28
2022-12-29T18:51:21.970Z,69.29
2022-12-29T18:53:51.024Z,69.22
2022-12-29T18:56:18.298Z,69.08
2022-12-29T18:58:45.401Z,69.41
2022-12-29T19:01:24.110Z,69.04
2022-12-29T19:03:53.395Z,68.82
2022-12-29T19:06:21.484Z,68.49
2022-12-29T19:08:48.919Z,68.85
2022-12-29T19:11:16.442Z,68.36
2022-12-29T19:13:43.610Z,68.42
2022-12-29T19:16:21.176Z,68.54
2022-12-29T19:19:05.706Z,68.44
2022-12-29T19:21:37.347Z,68.56
2022-12-29T19:24:04.870Z,68.72
2022-12-29T19:26:36.698Z,69.09
2022-12-29T19:29:05.460Z,69.09
2022-12-29T19:31:32.794Z,69.29
2022-12-29T19:34:03.734Z,69.31
2022-12-29T19:36:31.083Z,69.36
2022-12-29T19:38:58.693Z,68.88
2022-12-29T19:41:25.865Z,68.41
2022-12-29T19:43:53.087Z,68.83
2022-12-29T19:46:21.022Z,69.13
2022-12-29T19:48:48.061Z,68.76
2022-12-29T19:51:17.381Z,68.80
2022-12-29T19:53:47.718Z,68.78
2022-12-29T19:56:15.448Z,68.51
2022-12-29T19:58:46.856Z,68.90
2022-12-29T20:01:20.332Z,69.03
2022-12-29T20:03:48.656Z,68.83
2022-12-29T20:06:16.337Z,68.82
2022-12-29T20:08:43.839Z,68.29
2022-12-29T20:11:14.496Z,68.56
2022-12-29T20:13:42.771Z,69.29
2022-12-29T20:16:14.802Z,69.16
2022-12-29T20:18:42.586Z,69.73
2022-12-29T20:21:15.534Z,69.53
2022-12-29T20:23:43.398Z,69.54
2022-12-29T20:26:29.142Z,69.74
2022-12-29T20:28:58.314Z,69.75
2022-12-29T20:31:29.067Z,69.25
2022-12-29T20:33:56.537Z,69.03
2022-12-29T20:36:29.814Z,69.04
2022-12-29T20:38:59.372Z,68.66
2022-12-29T20:41:27.333Z,69.60
2022-12-29T20:43:54.721Z,69.54
2022-12-29T20:46:25.190Z,69.17
2022-12-29T20:48:55.600Z,69.57
2022-12-29T20:51:22.822Z,68.91
2022-12-29T20:53:49.937Z,69.14
2022-12-29T20:56:20.383Z,68.93
2022-12-29T20:59:25.278Z,68.81
2022-12-29T21:01:35.863Z,68.36
2022-12-29T21:04:04.131Z,68.43
2022-12-29T21:06:31.682Z,68.48
2022-12-29T21:09:00.125Z,68.19
2022-12-29T21:11:28.444Z,68.35
2022-12-29T21:13:58.216Z,68.43
2022-12-29T21:16:28.581Z,69.09
2022-12-29T21:18:55.739Z,69.26
2022-12-29T21:21:25.138Z,68.92
2022-12-29T21:23:52.808Z,68.55
2022-12-29T21:26:22.737Z,68.30
2022-12-29T21:28:50.993Z,67.93
2022-12-29T21:31:36.792Z,67.84
2022-12-29T21:34:05.620Z,68.62
2022-12-29T21:36:33.436Z,68.16
2022-12-29T21:39:01.090Z,68.79
2022-12-29T21:41:28.186Z,69.56
2022-12-29T21:44:16.217Z,69.08
2022-12-29T21:46:45.347Z,71.26
2022-12-29T21:49:12.806Z,73.13
2022-12-29T21:51:52.378Z,72.86
2022-12-29T21:54:43.994Z,70.43
2022-12-29T21:57:16.611Z,69.52
2022-12-29T22:00:06.560Z,69.74
2022-12-29T22:02:54.971Z,69.63
2022-12-29T22:05:40.838Z,70.02
2022-12-29T22:08:26.301Z,70.08
2022-12-29T22:11:12.054Z,70.31
2022-12-29T22:13:39.549Z,70.58
2022-12-29T22:16:10.567Z,70.57
2022-12-29T22:18:38.978Z,70.50
2022-12-29T22:21:08.111Z,70.03
2022-12-29T22:23:36.545Z,70.22
2022-12-29T22:26:14.629Z,69.89
2022-12-29T22:28:44.210Z,69.32
2022-12-29T22:31:24.126Z,70.06
2022-12-29T22:33:51.484Z,69.43
2022-12-29T22:36:18.530Z,68.83
2022-12-29T22:38:45.789Z,69.03
2022-12-29T22:41:12.843Z,69.23
2022-12-29T22:43:39.854Z,69.19
2022-12-29T22:46:08.279Z,68.82
2022-12-29T22:48:36.441Z,69.05
2022-12-29T22:51:04.284Z,68.92
2022-12-29T22:53:31.684Z,68.92
2022-12-29T22:56:06.641Z,68.93
2022-12-29T22:58:34.026Z,68.89
2022-12-29T23:01:01.579Z,69.51
2022-12-29T23:03:28.840Z,70.13
2022-12-29T23:05:57.737Z,69.60
2022-12-29T23:08:25.241Z,69.06
2022-12-29T23:10:52.524Z,69.25
2022-12-29T23:13:19.732Z,68.48
2022-12-29T23:15:47.170Z,68.54
2022-12-29T23:18:14.688Z,68.41
2022-12-29T23:20:42.294Z,69.05
2022-12-29T23:23:09.312Z,69.08
2022-12-29T23:25:37.771Z,69.43
2022-12-29T23:28:06.955Z,69.25
2022-12-29T23:30:34.607Z,69.43
2022-12-29T23:33:01.703Z,69.10
2022-12-29T23:35:28.731Z,68.73
2022-12-29T23:37:55.680Z,68.49
2022-12-29T23:40:22.780Z,68.99
2022-12-29T23:42:49.754Z,68.63
2022-12-29T23:45:16.753Z,68.42
2022-12-29T23:47:43.697Z,68.52
2022-12-29T23:50:10.798Z,68.25
2022-12-29T23:52:37.805Z,68.39
2022-12-29T23:55:05.216Z,68.46
2022-12-29T23:57:32.295Z,68.13
2022-12-29T23:59:59.298Z,67.61
